Time;durP1;ratioP1;P1;durP2;ratioP2;P2;SDS_P1;SDS_P2;PMS_P1;PMS_P2;Temp;Humidity;BMP_temperature;BMP_pressure;BME280_temperature;BME280_humidity;BME280_pressure;Samples;Min_cycle;Max_cycle;Signal;HPM_P1;HPM_P2
2024/04/06 00:01:21;;;;;;;3.75;2.00;;;17.30;99.90;;;;;;5109164;28;20106;-76
2024/04/06 00:03:47;;;;;;;4.05;2.17;;;17.30;99.90;;;;;;5121391;27;20019;-76
2024/04/06 00:06:13;;;;;;;4.60;1.80;;;17.30;99.90;;;;;;5135545;27;20054;-76
2024/04/06 00:08:39;;;;;;;4.97;1.85;;;17.30;99.90;;;;;;5134912;27;20065;-76
2024/04/06 00:11:04;;;;;;;3.65;1.60;;;17.20;99.90;;;;;;5104792;28;20467;-76
2024/04/06 00:13:30;;;;;;;3.58;1.70;;;17.20;99.90;;;;;;5113914;27;20023;-76
2024/04/06 00:15:56;;;;;;;3.75;2.00;;;17.20;99.90;;;;;;5134741;27;20019;-76
2024/04/06 00:18:22;;;;;;;5.07;1.85;;;17.20;99.90;;;;;;5135360;27;20479;-76
2024/04/06 00:20:47;;;;;;;7.05;1.88;;;17.20;99.90;;;;;;5134165;27;20015;-76
2024/04/06 00:23:13;;;;;;;4.35;2.10;;;17.10;99.90;;;;;;5102833;27;20364;-76
2024/04/06 00:25:38;;;;;;;3.33;1.85;;;17.10;99.90;;;;;;5105180;28;20472;-76
2024/04/06 00:28:04;;;;;;;3.38;2.03;;;17.10;99.90;;;;;;5112383;27;20023;-76
2024/04/06 00:30:30;;;;;;;3.78;1.98;;;17.10;99.90;;;;;;5134568;27;20544;-76
2024/04/06 00:32:56;;;;;;;6.07;2.00;;;17.10;99.90;;;;;;5121185;27;20027;-76
2024/04/06 00:35:21;;;;;;;4.50;2.08;;;17.00;99.90;;;;;;5135203;27;20023;-76
2024/04/06 00:37:49;;;;;;;6.00;2.13;;;17.00;99.90;;;;;;5130849;27;20052;-76
2024/04/06 00:40:15;;;;;;;4.68;1.90;;;17.00;99.90;;;;;;5133893;27;20527;-76
2024/04/06 00:42:41;;;;;;;4.40;1.90;;;17.00;99.90;;;;;;5115163;27;20372;-76
2024/04/06 00:45:08;;;;;;;3.45;2.15;;;16.90;99.90;;;;;;5133314;27;20030;-76
2024/04/06 00:47:35;;;;;;;5.45;1.70;;;17.00;99.90;;;;;;5116490;27;20030;-76
2024/04/06 00:50:08;;;;;;;3.63;2.15;;;17.00;99.90;;;;;;5115923;27;20019;-75
2024/04/06 00:52:34;;;;;;;3.65;2.30;;;16.90;99.90;;;;;;5119611;27;20031;-76
2024/04/06 00:55:01;;;;;;;3.90;2.30;;;16.90;99.90;;;;;;5108410;27;20024;-76
2024/04/06 00:57:27;;;;;;;4.47;2.10;;;16.90;99.90;;;;;;5119071;27;20020;-76
2024/04/06 00:59:53;;;;;;;4.05;2.22;;;16.90;99.90;;;;;;5116164;27;20059;-75
2024/04/06 01:02:19;;;;;;;6.05;2.17;;;16.90;99.90;;;;;;5134327;27;20030;-76
2024/04/06 01:04:44;;;;;;;4.60;2.28;;;16.80;99.90;;;;;;5134280;27;20024;-76
2024/04/06 01:07:10;;;;;;;5.68;2.20;;;16.80;99.90;;;;;;5133585;27;20020;-75
2024/04/06 01:09:36;;;;;;;4.30;2.17;;;16.80;99.90;;;;;;5134061;27;20378;-75
2024/04/06 01:12:01;;;;;;;2.92;2.10;;;16.70;99.90;;;;;;5115501;27;20026;-76
2024/04/06 01:14:27;;;;;;;4.05;2.42;;;16.70;99.90;;;;;;5134313;27;20023;-76
2024/04/06 01:16:53;;;;;;;5.85;2.65;;;16.70;99.90;;;;;;5133132;27;20058;-76
2024/04/06 01:19:19;;;;;;;4.88;1.83;;;16.60;99.90;;;;;;5115775;27;20072;-75
2024/04/06 01:21:45;;;;;;;4.07;1.95;;;16.60;99.90;;;;;;5128495;27;20080;-76
2024/04/06 01:24:30;;;;;;;5.97;2.17;;;16.60;99.90;;;;;;5124819;27;20023;-76
2024/04/06 01:26:59;;;;;;;5.65;2.38;;;16.50;99.90;;;;;;5133339;27;20019;-76
2024/04/06 01:29:27;;;;;;;3.97;1.98;;;16.50;99.90;;;;;;5134104;27;20031;-75
2024/04/06 01:31:53;;;;;;;6.68;2.55;;;16.30;99.90;;;;;;5133546;27;20019;-76
2024/04/06 01:34:20;;;;;;;6.85;2.05;;;16.30;99.90;;;;;;5133361;27;20027;-76
2024/04/06 01:36:46;;;;;;;4.05;2.10;;;16.20;99.90;;;;;;5133435;27;20026;-76
2024/04/06 01:39:12;;;;;;;7.07;2.22;;;16.20;99.90;;;;;;5113105;27;20019;-76
2024/04/06 01:41:39;;;;;;;6.68;2.42;;;16.20;99.90;;;;;;5133180;27;20042;-76
2024/04/06 01:44:06;;;;;;;4.05;2.58;;;16.10;99.90;;;;;;5134016;27;20023;-76
2024/04/06 01:46:33;;;;;;;5.00;2.10;;;16.00;99.90;;;;;;5114476;27;20031;-76
2024/04/06 01:48:59;;;;;;;7.20;2.55;;;16.00;99.90;;;;;;5115420;27;20027;-75
2024/04/06 01:51:25;;;;;;;3.45;2.67;;;16.00;99.90;;;;;;5115251;27;20482;-76
2024/04/06 01:53:51;;;;;;;2.97;2.17;;;16.00;99.90;;;;;;5133165;27;20027;-75
2024/04/06 01:56:16;;;;;;;3.13;2.17;;;16.10;99.90;;;;;;5132713;27;20020;-76
2024/04/06 01:58:42;;;;;;;7.15;2.83;;;16.00;99.90;;;;;;5133505;27;20035;-76
2024/04/06 02:01:08;;;;;;;8.23;2.65;;;16.00;99.90;;;;;;5114674;27;20045;-79
2024/04/06 02:03:37;;;;;;;5.47;3.13;;;16.00;99.90;;;;;;5133312;27;20038;-76
2024/04/06 02:06:02;;;;;;;3.97;2.47;;;15.90;99.90;;;;;;5133269;27;20163;-76
2024/04/06 02:08:28;;;;;;;5.20;2.67;;;15.80;99.90;;;;;;5113646;27;20090;-77
2024/04/06 02:10:54;;;;;;;5.22;2.85;;;15.70;99.90;;;;;;5133428;27;20406;-75
2024/04/06 02:13:20;;;;;;;7.30;3.47;;;15.70;99.90;;;;;;5132984;27;20024;-76
2024/04/06 02:15:45;;;;;;;5.80;3.00;;;15.70;99.90;;;;;;5132369;27;20363;-76
2024/04/06 02:18:11;;;;;;;4.55;2.58;;;15.70;99.90;;;;;;5132351;27;21486;-76
2024/04/06 02:20:39;;;;;;;5.00;2.67;;;15.70;99.90;;;;;;5114845;27;20023;-76
2024/04/06 02:23:04;;;;;;;5.65;3.13;;;15.60;99.90;;;;;;5131484;27;20034;-76
2024/04/06 02:25:31;;;;;;;5.45;2.97;;;15.50;99.90;;;;;;5114969;28;20021;-76
2024/04/06 02:27:57;;;;;;;5.68;2.65;;;15.50;99.90;;;;;;5132845;27;20058;-76
2024/04/06 02:30:23;;;;;;;5.72;3.38;;;15.50;99.90;;;;;;5133048;27;20439;-76
2024/04/06 02:32:49;;;;;;;9.13;3.60;;;15.50;99.90;;;;;;5132722;27;20080;-75
2024/04/06 02:35:15;;;;;;;8.18;3.17;;;15.60;99.90;;;;;;5131437;27;20550;-76
2024/04/06 02:37:44;;;;;;;7.45;2.53;;;15.70;99.90;;;;;;5113707;28;20535;-76
2024/04/06 02:40:10;;;;;;;6.70;2.83;;;15.60;99.90;;;;;;5132714;28;20027;-76
2024/04/06 02:42:37;;;;;;;5.45;3.65;;;15.70;99.90;;;;;;5132012;28;20031;-76
2024/04/06 02:45:03;;;;;;;6.90;3.33;;;15.70;99.90;;;;;;5114383;28;20114;-77
2024/04/06 02:47:29;;;;;;;6.25;2.95;;;15.80;99.90;;;;;;5132416;28;20019;-77
2024/04/06 02:49:56;;;;;;;8.07;4.07;;;15.70;99.90;;;;;;5132769;28;20020;-75
2024/04/06 02:52:22;;;;;;;7.30;3.53;;;15.70;99.90;;;;;;5113784;28;20258;-76
2024/04/06 02:54:48;;;;;;;4.65;3.63;;;15.70;99.90;;;;;;5114813;28;20487;-75
2024/04/06 02:57:14;;;;;;;4.88;3.20;;;15.70;99.90;;;;;;5113960;28;20020;-75
2024/04/06 02:59:39;;;;;;;5.57;3.40;;;15.80;99.90;;;;;;5132136;28;20488;-76
2024/04/06 03:02:06;;;;;;;6.47;3.67;;;15.70;99.90;;;;;;5115495;27;20110;-76
2024/04/06 03:04:31;;;;;;;6.68;3.30;;;15.70;99.90;;;;;;5136796;27;20395;-76
2024/04/06 03:06:57;;;;;;;5.32;3.53;;;15.60;99.90;;;;;;5135569;27;20027;-75
2024/04/06 03:09:23;;;;;;;5.18;3.50;;;15.60;99.90;;;;;;5118451;27;20027;-76
2024/04/06 03:11:48;;;;;;;6.80;3.63;;;15.60;99.90;;;;;;5118572;27;20033;-76
2024/04/06 03:14:14;;;;;;;4.13;2.90;;;15.60;99.90;;;;;;5136458;27;20031;-76
2024/04/06 03:16:40;;;;;;;5.22;4.47;;;15.50;99.90;;;;;;5117658;27;20031;-76
2024/04/06 03:19:05;;;;;;;5.78;3.97;;;15.40;99.90;;;;;;5136749;27;20379;-76
2024/04/06 03:21:31;;;;;;;7.13;3.75;;;15.30;99.90;;;;;;5135956;27;20467;-76
2024/04/06 03:23:57;;;;;;;9.60;4.93;;;15.40;99.90;;;;;;5117664;27;20483;-76
2024/04/06 03:26:22;;;;;;;8.38;4.32;;;15.30;99.90;;;;;;5133448;27;20460;-76
2024/04/06 03:28:48;;;;;;;9.70;4.25;;;15.30;99.90;;;;;;5117848;27;20478;-75
2024/04/06 03:31:14;;;;;;;7.93;3.88;;;15.20;99.90;;;;;;5135389;27;20055;-76
2024/04/06 03:33:40;;;;;;;4.93;3.75;;;15.20;99.90;;;;;;5136348;27;20034;-76
2024/04/06 03:36:05;;;;;;;7.35;4.35;;;15.10;99.90;;;;;;5135232;27;20046;-75
2024/04/06 03:38:31;;;;;;;6.63;4.18;;;15.10;99.90;;;;;;5136282;27;20487;-75
2024/04/06 03:40:57;;;;;;;8.05;4.30;;;15.10;99.90;;;;;;5135568;27;20094;-76
2024/04/06 03:43:23;;;;;;;6.03;4.13;;;15.10;99.90;;;;;;5117662;27;20138;-76
2024/04/06 03:45:50;;;;;;;6.35;4.60;;;15.10;99.90;;;;;;5111589;28;20015;-76
2024/04/06 03:48:16;;;;;;;5.45;4.38;;;15.10;99.90;;;;;;5107903;27;20558;-75
2024/04/06 03:50:42;;;;;;;9.13;4.43;;;15.10;99.90;;;;;;5135617;27;20098;-76
2024/04/06 03:53:07;;;;;;;7.40;4.20;;;15.10;99.90;;;;;;5134898;27;20352;-75
2024/04/06 03:55:33;;;;;;;5.93;4.93;;;15.10;99.90;;;;;;5135732;27;20466;-75
2024/04/06 03:57:59;;;;;;;6.03;3.70;;;15.10;99.90;;;;;;5117611;27;20113;-75
2024/04/06 04:00:24;;;;;;;7.00;3.97;;;15.00;99.90;;;;;;5135474;27;20023;-75
2024/04/06 04:02:50;;;;;;;7.35;4.53;;;15.00;99.90;;;;;;5115799;27;20039;-75
2024/04/06 04:05:16;;;;;;;10.18;4.57;;;14.80;99.90;;;;;;5135082;27;20493;-76
2024/04/06 04:07:41;;;;;;;9.60;5.28;;;14.80;99.90;;;;;;5117523;27;20059;-75
2024/04/06 04:10:07;;;;;;;8.50;4.82;;;14.80;99.90;;;;;;5134350;27;20025;-76
2024/04/06 04:12:33;;;;;;;6.88;4.60;;;14.80;99.90;;;;;;5134432;27;20113;-75
2024/04/06 04:15:01;;;;;;;7.35;4.22;;;14.90;99.90;;;;;;5134568;27;20029;-75
2024/04/06 04:17:26;;;;;;;9.98;5.43;;;14.80;99.90;;;;;;5116970;27;20034;-75
2024/04/06 04:19:52;;;;;;;12.55;4.60;;;14.80;99.90;;;;;;5134955;27;20463;-75
2024/04/06 04:22:18;;;;;;;8.25;4.35;;;14.80;99.90;;;;;;5134367;27;20035;-75
2024/04/06 04:24:44;;;;;;;6.72;4.28;;;14.90;99.90;;;;;;5135323;27;20436;-76
2024/04/06 04:27:10;;;;;;;10.52;4.88;;;14.90;99.90;;;;;;5135252;27;20027;-76
2024/04/06 04:29:36;;;;;;;8.63;4.63;;;14.80;99.90;;;;;;5135274;27;20023;-76
2024/04/06 04:32:03;;;;;;;8.38;5.00;;;14.80;99.90;;;;;;5106016;28;20479;-76
2024/04/06 04:34:32;;;;;;;9.00;5.20;;;14.70;99.90;;;;;;5099740;27;20536;-76
2024/04/06 04:36:58;;;;;;;7.53;3.92;;;14.70;99.90;;;;;;5106513;27;20031;-76
2024/04/06 04:39:24;;;;;;;8.00;4.90;;;14.70;99.90;;;;;;5109124;27;20020;-75
2024/04/06 04:41:51;;;;;;;10.93;4.15;;;14.60;99.90;;;;;;5109894;27;20479;-75
2024/04/06 04:44:18;;;;;;;7.55;4.20;;;14.60;99.90;;;;;;5107582;27;20666;-75
2024/04/06 04:46:44;;;;;;;12.35;5.35;;;14.60;99.90;;;;;;5106835;27;20113;-75
2024/04/06 04:49:10;;;;;;;8.10;4.72;;;14.70;99.90;;;;;;5107850;27;20059;-75
2024/04/06 04:51:36;;;;;;;5.90;4.55;;;14.70;99.90;;;;;;5107790;27;20027;-75
2024/04/06 04:54:02;;;;;;;7.97;4.32;;;14.70;99.90;;;;;;5108710;27;20018;-75
2024/04/06 04:56:28;;;;;;;9.25;5.13;;;14.60;99.90;;;;;;5107699;27;20066;-77
2024/04/06 04:58:54;;;;;;;9.10;4.78;;;14.60;99.90;;;;;;5107927;27;20055;-75
2024/04/06 05:01:20;;;;;;;8.75;4.88;;;14.60;99.90;;;;;;5107702;27;20502;-76
2024/04/06 05:03:46;;;;;;;7.53;4.28;;;14.50;99.90;;;;;;5109176;27;20031;-75
2024/04/06 05:06:12;;;;;;;6.07;4.50;;;14.50;99.90;;;;;;5106930;27;20133;-75
2024/04/06 05:08:38;;;;;;;4.90;4.18;;;14.40;99.90;;;;;;5089394;27;20108;-75
2024/04/06 05:11:04;;;;;;;11.60;4.32;;;14.40;99.90;;;;;;5088639;28;20085;-75
2024/04/06 05:13:30;;;;;;;10.40;4.70;;;14.40;99.90;;;;;;5108308;27;20368;-76
2024/04/06 05:15:57;;;;;;;6.88;4.50;;;14.40;99.90;;;;;;5106424;27;20051;-75
2024/04/06 05:18:23;;;;;;;6.60;4.00;;;14.40;99.90;;;;;;5088693;28;20403;-75
2024/04/06 05:20:54;;;;;;;7.72;4.40;;;14.50;99.90;;;;;;5107747;27;20110;-75
2024/04/06 05:23:21;;;;;;;7.55;4.03;;;14.50;99.90;;;;;;5105645;27;20114;-75
2024/04/06 05:25:48;;;;;;;5.22;3.88;;;14.60;99.90;;;;;;5106129;28;20019;-75
2024/04/06 05:28:19;;;;;;;5.55;3.80;;;14.60;99.90;;;;;;5089120;28;20483;-75
2024/04/06 05:30:45;;;;;;;6.07;3.90;;;14.50;99.90;;;;;;5107459;27;20035;-75
2024/04/06 05:33:13;;;;;;;6.03;3.97;;;14.50;99.90;;;;;;5107655;27;20032;-75
2024/04/06 05:35:41;;;;;;;6.20;3.53;;;14.50;99.90;;;;;;5107390;27;20468;-75
2024/04/06 05:38:06;;;;;;;4.82;3.67;;;14.50;99.90;;;;;;5107276;27;20036;-75
2024/04/06 05:40:39;;;;;;;8.65;3.72;;;14.60;99.90;;;;;;5107341;27;20023;-75
2024/04/06 05:43:05;;;;;;;5.47;3.72;;;14.50;99.90;;;;;;5107705;27;20031;-75
2024/04/06 05:45:31;;;;;;;7.65;3.63;;;14.60;99.90;;;;;;5108606;27;20024;-75
2024/04/06 05:48:03;;;;;;;6.70;4.22;;;14.60;99.90;;;;;;5088002;28;20377;-75
2024/04/06 05:50:32;;;;;;;7.57;3.70;;;14.60;99.90;;;;;;5089733;27;20023;-79
2024/04/06 05:52:58;;;;;;;12.75;3.75;;;14.70;99.90;;;;;;5088792;28;20118;-76
2024/04/06 05:55:24;;;;;;;5.82;3.38;;;14.70;99.90;;;;;;5105113;28;20134;-75
2024/04/06 05:57:51;;;;;;;4.55;3.28;;;14.60;99.90;;;;;;5106565;27;20047;-75
2024/04/06 06:00:17;;;;;;;6.70;3.70;;;14.60;99.90;;;;;;5107796;27;20032;-77
2024/04/06 06:02:43;;;;;;;6.60;3.25;;;14.70;99.90;;;;;;5107140;27;20088;-76
2024/04/06 06:05:10;;;;;;;7.07;3.72;;;14.70;99.90;;;;;;5088905;28;20039;-79
2024/04/06 06:07:36;;;;;;;5.30;3.72;;;14.70;99.90;;;;;;5106199;28;20388;-76
2024/04/06 06:10:03;;;;;;;5.55;4.03;;;14.70;99.90;;;;;;5087641;28;20057;-76
2024/04/06 06:12:29;;;;;;;6.13;3.83;;;14.70;99.90;;;;;;5106671;28;20031;-77
2024/04/06 06:14:55;;;;;;;6.65;3.53;;;14.60;99.90;;;;;;5087302;28;20019;-76
2024/04/06 06:17:21;;;;;;;7.07;3.70;;;14.60;99.90;;;;;;5106366;28;20099;-76
2024/04/06 06:19:46;;;;;;;7.20;3.05;;;14.60;99.90;;;;;;5107076;27;20383;-75
2024/04/06 06:22:12;;;;;;;4.97;3.50;;;14.70;99.90;;;;;;5106197;27;20044;-75
2024/04/06 06:24:38;;;;;;;7.05;3.20;;;14.80;99.90;;;;;;5087618;28;20464;-76
2024/04/06 06:27:05;;;;;;;8.05;3.40;;;14.80;99.90;;;;;;5106256;28;20028;-77
2024/04/06 06:29:33;;;;;;;7.90;3.00;;;14.90;99.90;;;;;;5106414;27;20043;-77
2024/04/06 06:31:58;;;;;;;5.28;2.90;;;15.00;99.90;;;;;;5106214;28;20098;-81
2024/04/06 06:34:24;;;;;;;4.47;2.75;;;15.00;99.90;;;;;;5087753;28;20039;-81
2024/04/06 06:36:50;;;;;;;4.82;3.40;;;15.10;99.90;;;;;;5104824;27;20020;-83
2024/04/06 06:39:15;;;;;;;10.20;3.13;;;15.10;99.90;;;;;;5088602;28;20387;-80
2024/04/06 06:41:42;;;;;;;7.82;3.08;;;15.20;99.90;;;;;;5107027;28;20048;-83
2024/04/06 06:44:08;;;;;;;7.88;2.90;;;15.20;99.90;;;;;;5088274;28;20372;-81
2024/04/06 06:46:35;;;;;;;7.38;3.20;;;15.20;99.90;;;;;;5106901;28;20090;-83
2024/04/06 06:49:01;;;;;;;7.40;3.00;;;15.20;99.90;;;;;;5106468;28;20023;-83
2024/04/06 06:51:27;;;;;;;5.28;3.47;;;15.30;99.90;;;;;;5106452;28;20038;-83
2024/04/06 06:53:53;;;;;;;7.15;2.55;;;15.40;99.90;;;;;;5087836;28;20027;-82
2024/04/06 06:56:22;;;;;;;5.95;2.97;;;15.50;99.90;;;;;;5087135;28;20026;-80
2024/04/06 06:58:51;;;;;;;6.68;2.85;;;15.50;99.90;;;;;;5106493;28;20537;-82
2024/04/06 07:01:17;;;;;;;6.30;3.13;;;15.70;99.90;;;;;;5107267;28;20028;-83
2024/04/06 07:03:43;;;;;;;4.82;2.40;;;15.70;99.90;;;;;;5106261;28;20039;-84
2024/04/06 07:06:12;;;;;;;5.43;2.00;;;15.80;99.90;;;;;;5106415;28;20116;-83
2024/04/06 07:08:42;;;;;;;4.68;2.50;;;15.90;99.90;;;;;;5086927;28;20031;-81
2024/04/06 07:11:09;;;;;;;3.83;2.40;;;16.00;99.90;;;;;;5104680;28;20020;-79
2024/04/06 07:13:35;;;;;;;6.20;2.42;;;16.20;99.90;;;;;;5105730;28;20019;-81
2024/04/06 07:16:09;;;;;;;4.55;1.90;;;16.30;99.90;;;;;;5087437;28;20106;-80
2024/04/06 07:18:37;;;;;;;5.40;1.98;;;16.40;99.90;;;;;;5104768;28;20534;-80
2024/04/06 07:21:04;;;;;;;5.03;2.53;;;16.50;99.90;;;;;;5105112;28;20420;-80
2024/04/06 07:23:30;;;;;;;4.25;2.00;;;16.70;99.90;;;;;;5105821;28;20040;-79
2024/04/06 07:25:56;;;;;;;3.67;2.40;;;16.80;99.90;;;;;;5086574;28;20015;-81
2024/04/06 07:28:21;;;;;;;2.80;2.00;;;16.90;99.90;;;;;;5106518;28;20462;-80
2024/04/06 07:30:47;;;;;;;4.50;1.60;;;17.00;99.90;;;;;;5104688;28;20027;-80
2024/04/06 07:33:13;;;;;;;21.30;2.50;;;17.10;99.90;;;;;;5105060;28;20031;-82
2024/04/06 07:35:39;;;;;;;11.13;2.05;;;17.10;99.90;;;;;;5084892;28;20030;-83
2024/04/06 07:38:05;;;;;;;11.07;1.95;;;17.30;99.90;;;;;;5087049;28;20023;-80
2024/04/06 07:40:31;;;;;;;5.70;1.90;;;17.30;99.90;;;;;;5086974;28;20081;-82
2024/04/06 07:42:58;;;;;;;3.65;1.88;;;17.40;99.90;;;;;;5086865;28;20050;-81
2024/04/06 07:45:23;;;;;;;3.75;1.85;;;17.50;99.90;;;;;;5105324;28;20031;-81
2024/04/06 07:47:49;;;;;;;4.70;1.65;;;17.50;99.90;;;;;;5105846;28;20035;-79
2024/04/06 07:50:15;;;;;;;2.85;1.48;;;17.50;99.90;;;;;;5110178;27;20534;-84
2024/04/06 07:52:41;;;;;;;2.97;1.60;;;17.70;99.90;;;;;;5090421;28;20463;-77
2024/04/06 07:55:07;;;;;;;5.90;1.67;;;17.70;99.90;;;;;;5107879;27;20023;-81
2024/04/06 07:57:33;;;;;;;7.35;1.60;;;17.90;99.90;;;;;;5090324;28;20035;-83
2024/04/06 08:00:01;;;;;;;6.10;1.75;;;18.00;99.90;;;;;;5110001;27;20098;-77
2024/04/06 08:02:28;;;;;;;7.13;1.70;;;18.20;99.90;;;;;;5109647;27;20035;-73
2024/04/06 08:04:56;;;;;;;4.80;1.40;;;18.40;99.90;;;;;;5108935;27;20020;-73
2024/04/06 08:07:25;;;;;;;6.13;1.38;;;18.50;99.90;;;;;;5108320;27;20022;-79
2024/04/06 08:10:00;;;;;;;6.32;1.30;;;18.70;99.90;;;;;;5108542;27;20011;-75
2024/04/06 08:12:26;;;;;;;3.15;1.30;;;18.80;99.90;;;;;;5089441;27;20612;-78
2024/04/06 08:14:52;;;;;;;5.25;1.63;;;19.00;99.90;;;;;;5109428;27;20019;-78
2024/04/06 08:17:18;;;;;;;2.47;1.60;;;19.10;99.90;;;;;;5089578;27;20019;-79
2024/04/06 08:19:44;;;;;;;3.20;1.58;;;19.20;99.90;;;;;;5089128;28;20023;-79
2024/04/06 08:22:09;;;;;;;3.60;1.25;;;19.30;99.90;;;;;;5108767;28;20035;-79
2024/04/06 08:24:35;;;;;;;3.78;1.58;;;19.40;99.90;;;;;;5106934;27;20496;-80
2024/04/06 08:27:02;;;;;;;3.35;1.55;;;19.50;99.90;;;;;;5090266;28;20361;-79
2024/04/06 08:29:28;;;;;;;2.40;1.40;;;19.60;99.90;;;;;;5088482;27;20503;-79
2024/04/06 08:31:54;;;;;;;9.48;2.22;;;19.80;99.90;;;;;;5108392;27;20038;-79
2024/04/06 08:34:19;;;;;;;5.97;1.73;;;19.90;99.90;;;;;;5108632;27;20033;-80
2024/04/06 08:36:46;;;;;;;2.80;1.52;;;20.00;99.90;;;;;;5090222;28;20460;-78
2024/04/06 08:39:11;;;;;;;3.40;1.27;;;20.20;99.90;;;;;;5108547;27;20016;-79
2024/04/06 08:41:40;;;;;;;3.40;1.40;;;20.20;99.90;;;;;;5109023;27;20031;-81
2024/04/06 08:44:13;;;;;;;5.28;1.60;;;20.30;99.90;;;;;;5090060;28;20080;-80
2024/04/06 08:46:41;;;;;;;4.35;1.45;;;20.30;99.90;;;;;;5088324;28;20035;-80
2024/04/06 08:49:13;;;;;;;2.72;1.20;;;20.40;99.90;;;;;;5106447;27;20022;-79
2024/04/06 08:51:41;;;;;;;4.93;1.65;;;20.50;99.90;;;;;;5108216;27;20077;-79
2024/04/06 08:54:07;;;;;;;2.92;1.50;;;20.50;99.90;;;;;;5087947;28;20023;-79
2024/04/06 08:56:33;;;;;;;5.75;1.55;;;20.40;99.90;;;;;;5106899;27;20016;-78
2024/04/06 08:59:01;;;;;;;1.75;1.17;;;20.50;99.90;;;;;;5086688;28;20473;-78
2024/04/06 09:01:27;;;;;;;2.03;1.00;;;20.50;99.90;;;;;;5107620;27;20065;-81
2024/04/06 09:03:53;;;;;;;5.47;1.40;;;20.40;99.90;;;;;;5107715;27;20038;-81
2024/04/06 09:06:19;;;;;;;3.15;1.40;;;20.50;99.90;;;;;;5088497;28;20451;-82
2024/04/06 09:08:45;;;;;;;9.13;1.60;;;20.60;99.90;;;;;;5108744;27;20034;-79
2024/04/06 09:11:12;;;;;;;3.75;1.00;;;20.60;99.90;;;;;;5107806;28;20032;-78
2024/04/06 09:13:39;;;;;;;5.55;1.02;;;20.70;99.90;;;;;;5088620;27;20026;-79
2024/04/06 09:16:12;;;;;;;2.50;1.30;;;20.80;99.90;;;;;;5089217;28;20468;-79
2024/04/06 09:18:41;;;;;;;2.40;1.00;;;20.70;99.90;;;;;;5108838;27;20447;-77
2024/04/06 09:21:07;;;;;;;3.70;1.50;;;20.70;99.90;;;;;;5089441;28;20023;-80
2024/04/06 09:23:32;;;;;;;4.13;1.38;;;20.90;99.90;;;;;;5107931;27;20034;-80
2024/04/06 09:25:59;;;;;;;2.50;1.00;;;21.00;99.90;;;;;;5107986;27;20384;-80
2024/04/06 09:28:24;;;;;;;3.42;1.23;;;21.20;99.90;;;;;;5089253;28;20020;-80
2024/04/06 09:30:55;;;;;;;1.90;1.00;;;21.40;99.90;;;;;;5088740;28;20020;-78
2024/04/06 09:33:23;;;;;;;3.42;1.30;;;21.50;99.90;;;;;;5088809;28;20016;-79
2024/04/06 09:35:50;;;;;;;3.30;1.10;;;21.80;99.90;;;;;;5107244;27;20032;-78
2024/04/06 09:38:16;;;;;;;4.85;1.40;;;21.90;99.90;;;;;;5107643;28;20030;-80
2024/04/06 09:40:51;;;;;;;1.83;0.95;;;22.00;99.90;;;;;;5089279;27;20020;-80
2024/04/06 09:43:17;;;;;;;2.22;0.90;;;22.00;99.90;;;;;;5089355;28;20078;-81
2024/04/06 09:45:43;;;;;;;3.78;1.48;;;22.10;99.90;;;;;;5088968;28;20043;-80
2024/04/06 09:48:10;;;;;;;3.38;1.17;;;22.20;99.90;;;;;;5106479;28;20031;-78
2024/04/06 09:50:39;;;;;;;3.50;1.13;;;22.30;99.90;;;;;;5108050;27;20548;-79
2024/04/06 09:53:07;;;;;;;3.78;1.00;;;22.20;99.90;;;;;;5105387;27;20031;-79
2024/04/06 09:55:37;;;;;;;3.13;1.00;;;22.20;99.90;;;;;;5107872;27;20024;-80
2024/04/06 09:58:04;;;;;;;2.72;0.90;;;22.40;99.90;;;;;;5106523;27;20043;-80
2024/04/06 10:00:30;;;;;;;2.83;1.00;;;22.60;99.90;;;;;;5089131;28;20028;-78
2024/04/06 10:02:56;;;;;;;2.00;0.90;;;22.80;99.90;;;;;;5107388;27;20376;-78
2024/04/06 10:05:21;;;;;;;6.18;1.17;;;23.00;99.90;;;;;;5107095;27;20027;-80
2024/04/06 10:07:49;;;;;;;5.07;0.98;;;23.10;99.90;;;;;;5107464;27;20110;-79
2024/04/06 10:10:16;;;;;;;1.75;0.95;;;23.10;99.90;;;;;;5088377;28;20023;-81
2024/04/06 10:12:46;;;;;;;3.40;1.00;;;23.10;99.90;;;;;;5108002;27;20965;-80
2024/04/06 10:15:20;;;;;;;2.35;1.02;;;23.10;99.90;;;;;;5087851;28;20034;-79
2024/04/06 10:17:48;;;;;;;2.65;0.82;;;23.10;99.90;;;;;;5106260;28;20034;-79
2024/04/06 10:20:17;;;;;;;2.25;1.42;;;23.10;99.90;;;;;;5106393;27;20036;-78
2024/04/06 10:22:50;;;;;;;1.38;1.17;;;23.10;99.90;;;;;;5108006;27;20043;-80
2024/04/06 10:25:20;;;;;;;4.35;1.42;;;23.20;99.90;;;;;;5088117;28;20031;-79
2024/04/06 10:27:47;;;;;;;5.45;0.95;;;23.20;99.90;;;;;;5106975;28;20031;-81
2024/04/06 10:30:12;;;;;;;3.75;1.23;;;23.20;99.90;;;;;;5088425;28;20495;-79
2024/04/06 10:32:38;;;;;;;3.38;1.10;;;23.30;99.90;;;;;;5106371;28;20077;-80
2024/04/06 10:35:04;;;;;;;1.55;1.02;;;23.30;99.90;;;;;;5106187;28;20027;-80
2024/04/06 10:37:30;;;;;;;3.50;1.20;;;23.20;99.90;;;;;;5089169;28;20032;-79
2024/04/06 10:39:57;;;;;;;6.57;1.20;;;23.20;99.90;;;;;;5088152;28;20012;-80
2024/04/06 10:42:26;;;;;;;2.85;1.10;;;23.40;99.90;;;;;;5105865;28;20118;-80
2024/04/06 10:44:52;;;;;;;4.07;0.90;;;23.50;99.90;;;;;;5087921;28;20051;-80
2024/04/06 10:47:18;;;;;;;3.63;1.35;;;23.50;99.90;;;;;;5106241;28;20020;-79
2024/04/06 10:49:47;;;;;;;3.30;0.93;;;23.70;99.90;;;;;;5105521;28;20353;-79
2024/04/06 10:52:13;;;;;;;2.30;1.23;;;23.70;99.90;;;;;;5106432;28;20008;-80
2024/04/06 10:54:39;;;;;;;2.25;0.65;;;23.90;99.90;;;;;;5106726;28;20023;-78
2024/04/06 10:57:05;;;;;;;2.75;0.80;;;23.90;99.90;;;;;;5106460;28;20093;-79
2024/04/06 10:59:31;;;;;;;2.30;1.15;;;24.00;99.90;;;;;;5087932;28;20028;-80
2024/04/06 11:01:57;;;;;;;3.72;0.80;;;24.10;99.90;;;;;;5107387;28;20553;-81
2024/04/06 11:04:24;;;;;;;3.72;1.25;;;24.20;99.90;;;;;;5087020;28;20019;-77
2024/04/06 11:06:49;;;;;;;2.03;1.00;;;24.40;99.90;;;;;;5105860;28;20032;-81
2024/04/06 11:09:15;;;;;;;1.00;0.77;;;24.50;99.90;;;;;;5088038;28;20032;-79
2024/04/06 11:11:41;;;;;;;22.67;8.73;;;24.80;99.90;;;;;;5106016;28;20028;-79
2024/04/06 11:14:10;;;;;;;2.45;1.33;;;24.90;99.90;;;;;;5106546;28;20019;-80
2024/04/06 11:16:41;;;;;;;3.45;1.50;;;25.00;99.90;;;;;;5106862;28;20027;-79
2024/04/06 11:19:08;;;;;;;2.55;1.60;;;25.10;99.90;;;;;;5105948;28;20472;-78
2024/04/06 11:21:34;;;;;;;5.30;3.05;;;25.00;99.90;;;;;;5107158;28;20103;-79
2024/04/06 11:24:00;;;;;;;11.38;7.07;;;25.10;99.90;;;;;;5090870;28;20118;-77
2024/04/06 11:26:25;;;;;;;7.72;4.95;;;25.30;99.90;;;;;;5090882;27;20024;-79
2024/04/06 11:28:51;;;;;;;94.20;35.28;;;25.10;99.30;;;;;;5091565;28;20527;-79
2024/04/06 11:31:21;;;;;;;2.08;1.38;;;25.20;99.90;;;;;;5109510;27;20023;-79
2024/04/06 11:33:47;;;;;;;1.52;1.00;;;25.30;99.30;;;;;;5109106;27;20468;-76
2024/04/06 11:36:13;;;;;;;4.32;3.25;;;25.40;99.60;;;;;;5110184;27;20031;-78
2024/04/06 11:38:39;;;;;;;3.25;1.77;;;25.40;99.90;;;;;;5092544;27;20020;-78
2024/04/06 11:41:05;;;;;;;2.70;1.55;;;25.60;99.90;;;;;;5110306;27;20034;-78
2024/04/06 11:43:31;;;;;;;3.42;1.00;;;25.80;99.40;;;;;;5109946;27;20395;-80
2024/04/06 11:45:57;;;;;;;3.00;2.60;;;25.80;98.60;;;;;;5109485;27;20020;-79
2024/04/06 11:48:23;;;;;;;5.90;2.75;;;25.90;99.90;;;;;;5109699;27;20487;-78
2024/04/06 11:50:48;;;;;;;2.42;1.95;;;25.80;99.60;;;;;;5109384;27;20080;-79
2024/04/06 11:53:14;;;;;;;3.47;0.90;;;25.70;98.10;;;;;;5108393;27;20053;-76
2024/04/06 11:55:40;;;;;;;2.42;1.30;;;25.60;97.30;;;;;;5089144;27;20088;-79
2024/04/06 11:58:06;;;;;;;2.70;1.98;;;25.70;98.90;;;;;;5109388;27;20046;-79
2024/04/06 12:00:32;;;;;;;1.95;1.17;;;25.70;97.10;;;;;;5092589;27;20119;-78
2024/04/06 12:02:59;;;;;;;2.47;0.90;;;25.80;97.50;;;;;;5090094;28;20032;-79
2024/04/06 12:05:24;;;;;;;2.40;1.30;;;25.90;97.10;;;;;;5108359;27;20102;-78
2024/04/06 12:07:51;;;;;;;2.97;1.25;;;25.80;99.60;;;;;;5108641;27;20554;-78
2024/04/06 12:10:17;;;;;;;3.53;1.13;;;25.90;99.90;;;;;;5090115;27;20095;-79
2024/04/06 12:12:43;;;;;;;2.08;1.05;;;25.90;98.10;;;;;;5109305;27;20114;-79
2024/04/06 12:15:08;;;;;;;1.50;1.10;;;25.80;95.00;;;;;;5089056;28;20023;-80
2024/04/06 12:17:34;;;;;;;3.92;1.00;;;25.90;97.10;;;;;;5108468;27;20088;-80
2024/04/06 12:20:00;;;;;;;0.82;0.75;;;26.10;97.90;;;;;;5109389;27;20438;-80
2024/04/06 12:22:25;;;;;;;4.07;1.33;;;26.10;99.40;;;;;;5090538;27;20023;-79
2024/04/06 12:24:52;;;;;;;3.22;1.60;;;26.10;97.00;;;;;;5109624;27;20023;-80
2024/04/06 12:27:18;;;;;;;2.42;1.20;;;26.10;95.70;;;;;;5107948;27;20054;-79
2024/04/06 12:29:45;;;;;;;3.00;1.15;;;26.00;97.20;;;;;;5108804;27;20039;-79
2024/04/06 12:32:10;;;;;;;1.23;0.82;;;26.00;95.60;;;;;;5108183;27;20069;-80
2024/04/06 12:34:37;;;;;;;3.38;1.55;;;26.00;95.80;;;;;;5089784;27;20023;-80
2024/04/06 12:37:10;;;;;;;1.27;0.90;;;25.90;96.20;;;;;;5108252;27;20035;-80
2024/04/06 12:39:36;;;;;;;2.05;1.50;;;25.90;97.30;;;;;;5090500;28;20007;-80
2024/04/06 12:42:03;;;;;;;1.27;0.80;;;25.90;97.80;;;;;;5090348;28;20035;-80